createdAt,value
2019-03-13T00:02:31.163Z,56.17
2019-03-13T00:05:02.500Z,54.98
2019-03-13T00:07:32.957Z,55.59
2019-03-13T00:10:03.630Z,54.98
2019-03-13T00:12:34.107Z,56.21
2019-03-13T00:15:08.707Z,55.59
2019-03-13T00:17:39.291Z,56.35
2019-03-13T00:20:10.491Z,55.41
2019-03-13T00:22:40.884Z,54.83
2019-03-13T00:25:11.249Z,54.03
2019-03-13T00:27:41.610Z,54.54
2019-03-13T00:30:13.015Z,54.67
2019-03-13T00:32:43.370Z,55.48
2019-03-13T00:35:13.738Z,54.75
2019-03-13T00:37:44.097Z,54.42
2019-03-13T00:40:14.479Z,56.11
2019-03-13T00:42:44.833Z,55.20
2019-03-13T00:45:15.766Z,55.84
2019-03-13T00:47:46.139Z,55.78
2019-03-13T00:50:27.982Z,55.62
2019-03-13T00:52:58.341Z,55.16
2019-03-13T00:55:28.712Z,55.40
2019-03-13T00:57:59.107Z,56.34
2019-03-13T01:00:42.901Z,55.75
2019-03-13T01:03:14.911Z,54.91
2019-03-13T01:06:11.852Z,55.14
2019-03-13T01:08:42.250Z,55.22
2019-03-13T01:11:12.624Z,56.71
2019-03-13T01:13:42.988Z,55.11
2019-03-13T01:16:13.512Z,54.68
2019-03-13T01:18:43.892Z,54.50
2019-03-13T01:21:15.221Z,55.61
2019-03-13T01:23:45.601Z,54.85
2019-03-13T01:26:15.930Z,56.46
2019-03-13T01:28:46.304Z,55.98
2019-03-13T01:31:36.614Z,56.43
2019-03-13T01:34:08.628Z,55.32
2019-03-13T01:36:39.010Z,55.83
2019-03-13T01:39:09.379Z,55.64
2019-03-13T01:41:39.906Z,55.94
2019-03-13T01:44:10.214Z,55.50
2019-03-13T01:46:40.562Z,54.69
2019-03-13T01:49:12.014Z,55.25
2019-03-13T01:51:42.317Z,55.87
2019-03-13T01:54:12.723Z,56.54
2019-03-13T01:56:43.018Z,56.22
2019-03-13T01:59:13.339Z,55.85
2019-03-13T02:01:43.708Z,55.24
2019-03-13T02:04:14.020Z,55.90
2019-03-13T02:06:44.308Z,54.85
2019-03-13T02:09:14.891Z,54.76
2019-03-13T02:11:45.382Z,55.10
2019-03-13T02:14:15.660Z,53.69
2019-03-13T02:16:45.965Z,53.88
2019-03-13T02:19:16.255Z,54.48
2019-03-13T02:21:46.648Z,54.76
2019-03-13T02:24:17.033Z,54.40
2019-03-13T02:26:47.413Z,54.19
2019-03-13T02:29:18.296Z,53.86
2019-03-13T02:31:48.673Z,54.73
2019-03-13T02:34:19.047Z,54.74
2019-03-13T02:36:49.438Z,54.57
2019-03-13T02:39:19.825Z,55.26
2019-03-13T02:41:50.198Z,54.67
2019-03-13T02:44:20.484Z,54.26
2019-03-13T02:46:50.796Z,54.79
2019-03-13T02:49:21.227Z,54.31
2019-03-13T02:51:51.586Z,54.50
2019-03-13T02:54:21.944Z,54.17
2019-03-13T02:56:52.358Z,54.51
2019-03-13T02:59:22.737Z,54.83
2019-03-13T03:01:54.829Z,54.72
2019-03-13T03:04:25.206Z,53.38
2019-03-13T03:06:55.581Z,53.51
2019-03-13T03:09:25.955Z,52.93
2019-03-13T03:11:56.263Z,54.13
2019-03-13T03:14:26.637Z,52.62
2019-03-13T03:16:56.982Z,53.65
2019-03-13T03:19:27.359Z,52.10
2019-03-13T03:21:57.715Z,53.06
2019-03-13T03:24:28.085Z,52.89
2019-03-13T03:26:58.455Z,51.49
2019-03-13T03:29:28.796Z,52.90
2019-03-13T03:31:59.156Z,51.71
2019-03-13T03:34:29.514Z,51.88
2019-03-13T03:36:59.877Z,52.26
2019-03-13T03:39:31.663Z,52.31
2019-03-13T03:42:01.993Z,52.27
2019-03-13T03:44:32.300Z,53.75
2019-03-13T03:47:02.569Z,52.33
2019-03-13T03:49:32.896Z,52.65
2019-03-13T03:52:03.174Z,52.88
2019-03-13T03:54:33.518Z,52.43
2019-03-13T03:57:03.780Z,51.36
2019-03-13T03:59:34.130Z,52.26
2019-03-13T04:02:04.439Z,52.53
2019-03-13T04:04:34.785Z,52.03
2019-03-13T04:07:05.130Z,52.37
2019-03-13T04:09:35.470Z,52.19
2019-03-13T04:12:07.421Z,52.21
2019-03-13T04:14:37.766Z,52.30
2019-03-13T04:17:08.173Z,51.69
2019-03-13T04:19:38.482Z,51.45
2019-03-13T04:22:08.789Z,51.86
2019-03-13T04:24:39.105Z,51.22
2019-03-13T04:27:09.458Z,50.92
2019-03-13T04:29:39.810Z,51.83
2019-03-13T04:32:10.195Z,50.96
2019-03-13T04:34:40.554Z,51.02
2019-03-13T04:37:10.943Z,51.17
2019-03-13T04:39:41.313Z,50.89
2019-03-13T04:42:11.660Z,51.82
2019-03-13T04:44:42.034Z,51.95
2019-03-13T04:47:12.305Z,52.57
2019-03-13T04:49:42.590Z,54.10
2019-03-13T04:52:12.943Z,54.62
2019-03-13T04:54:43.267Z,56.03
2019-03-13T04:57:13.623Z,56.52
2019-03-13T04:59:43.974Z,57.40
2019-03-13T05:02:14.312Z,58.27
2019-03-13T05:04:44.663Z,58.78
2019-03-13T05:07:15.015Z,58.79
2019-03-13T05:09:45.365Z,58.90
2019-03-13T05:12:15.691Z,58.43
2019-03-13T05:14:45.961Z,57.65
2019-03-13T05:17:16.318Z,57.44
2019-03-13T05:19:46.591Z,57.47
2019-03-13T05:22:18.646Z,57.48
2019-03-13T05:24:48.936Z,57.54
2019-03-13T05:27:19.401Z,57.77
2019-03-13T05:29:49.808Z,57.61
2019-03-13T05:32:20.548Z,57.79
2019-03-13T05:34:50.916Z,57.85
2019-03-13T05:37:21.287Z,58.29
2019-03-13T05:39:51.713Z,59.61
2019-03-13T05:42:22.006Z,61.33
2019-03-13T05:44:52.363Z,63.75
2019-03-13T05:47:22.728Z,65.44
2019-03-13T05:49:53.115Z,66.21
2019-03-13T05:52:23.459Z,67.14
2019-03-13T05:54:53.871Z,68.73
2019-03-13T05:57:24.240Z,69.71
2019-03-13T05:59:54.788Z,69.61
2019-03-13T06:02:25.140Z,70.00
2019-03-13T06:04:55.405Z,69.84
2019-03-13T06:07:25.690Z,69.52
2019-03-13T06:09:56.036Z,67.61
2019-03-13T06:12:26.685Z,67.48
2019-03-13T06:14:57.019Z,66.73
2019-03-13T06:17:28.096Z,67.19
2019-03-13T06:19:58.358Z,66.83
2019-03-13T06:22:28.790Z,67.18
2019-03-13T06:24:59.134Z,67.16
2019-03-13T06:27:29.889Z,66.63
2019-03-13T06:30:00.378Z,67.38
2019-03-13T06:32:30.986Z,66.89
2019-03-13T06:35:01.331Z,67.17
2019-03-13T06:37:31.683Z,67.52
2019-03-13T06:40:01.969Z,68.08
2019-03-13T06:42:33.814Z,67.55
2019-03-13T06:45:06.334Z,68.40
2019-03-13T06:47:36.678Z,68.80
2019-03-13T06:50:15.274Z,68.46
2019-03-13T06:52:45.624Z,67.46
2019-03-13T06:55:15.969Z,67.57
2019-03-13T06:57:46.311Z,67.19
2019-03-13T07:00:31.051Z,67.80
2019-03-13T07:03:55.924Z,68.90
2019-03-13T07:06:37.001Z,68.66
2019-03-13T07:09:15.209Z,68.71
2019-03-13T07:11:53.035Z,68.72
2019-03-13T07:14:41.738Z,68.70
2019-03-13T07:17:13.744Z,69.02
2019-03-13T07:19:45.672Z,68.93
2019-03-13T07:22:34.080Z,68.92
2019-03-13T07:25:06.440Z,69.33
2019-03-13T07:27:53.728Z,68.48
2019-03-13T07:30:25.696Z,68.92
2019-03-13T07:33:06.449Z,68.96
2019-03-13T07:35:38.399Z,69.30
2019-03-13T07:38:29.273Z,69.27
2019-03-13T07:41:04.064Z,69.12
2019-03-13T07:43:41.942Z,69.63
2019-03-13T07:46:19.737Z,68.67
2019-03-13T07:48:51.725Z,68.37
2019-03-13T07:51:35.976Z,68.10
2019-03-13T07:54:07.960Z,67.57
2019-03-13T07:56:39.954Z,67.24
2019-03-13T07:59:15.094Z,63.88
2019-03-13T08:01:53.303Z,64.12
2019-03-13T08:04:25.271Z,61.86
2019-03-13T08:06:59.976Z,63.54
2019-03-13T08:09:48.692Z,64.31
2019-03-13T08:12:20.675Z,62.18
2019-03-13T08:15:10.977Z,62.55
2019-03-13T08:17:43.105Z,61.69
2019-03-13T08:20:21.316Z,62.39
2019-03-13T08:22:57.194Z,61.92
2019-03-13T08:25:29.294Z,58.72
2019-03-13T08:28:16.695Z,61.13
2019-03-13T08:31:05.049Z,61.93
2019-03-13T08:33:37.088Z,63.05
2019-03-13T08:36:15.926Z,60.98
2019-03-13T08:38:53.829Z,60.63
2019-03-13T08:41:37.877Z,57.14
2019-03-13T08:44:22.287Z,56.28
2019-03-13T08:47:09.275Z,57.01
2019-03-13T08:49:57.609Z,56.43
2019-03-13T08:52:29.602Z,56.39
2019-03-13T08:55:15.012Z,55.29
2019-03-13T08:57:51.488Z,54.79
2019-03-13T09:00:33.151Z,53.80
2019-03-13T09:03:07.989Z,53.33
2019-03-13T09:05:42.674Z,51.58
2019-03-13T09:08:14.595Z,46.97
2019-03-13T09:10:48.604Z,48.80
2019-03-13T09:13:26.594Z,51.19
2019-03-13T09:16:11.967Z,51.30
2019-03-13T09:18:43.962Z,50.90
2019-03-13T09:21:25.039Z,51.93
2019-03-13T09:23:57.414Z,52.49
2019-03-13T09:26:38.438Z,52.19
2019-03-13T09:29:22.598Z,52.10
2019-03-13T09:32:00.824Z,52.88
2019-03-13T09:34:35.558Z,53.24
2019-03-13T09:37:10.640Z,53.01
2019-03-13T09:39:47.512Z,52.66
2019-03-13T09:42:19.761Z,51.94
2019-03-13T09:44:51.781Z,52.65
2019-03-13T09:47:33.143Z,50.93
2019-03-13T09:50:12.548Z,50.33
2019-03-13T09:52:51.284Z,51.31
2019-03-13T09:55:29.536Z,49.10
2019-03-13T09:58:07.306Z,49.34
2019-03-13T10:00:48.008Z,51.32
2019-03-13T10:03:20.465Z,50.14
2019-03-13T10:05:55.325Z,48.73
2019-03-13T10:08:33.282Z,48.83
2019-03-13T10:13:57.015Z,47.06
2019-03-13T10:16:29.209Z,49.22
2019-03-13T10:19:04.726Z,47.95
2019-03-13T10:21:49.134Z,47.10
2019-03-13T10:24:21.175Z,47.38
2019-03-13T10:26:53.165Z,48.81
2019-03-13T10:29:31.484Z,48.76
2019-03-13T10:32:03.515Z,48.82
2019-03-13T10:34:50.739Z,49.09
2019-03-13T10:37:33.250Z,47.66
2019-03-13T10:40:18.109Z,47.44
2019-03-13T10:43:08.214Z,48.72
2019-03-13T10:45:49.225Z,48.78
2019-03-13T10:48:21.293Z,46.98
2019-03-13T10:50:59.050Z,47.63
2019-03-13T10:53:31.369Z,49.00
2019-03-13T10:56:03.715Z,48.24
2019-03-13T10:58:41.579Z,48.11
2019-03-13T11:04:01.400Z,48.12
2019-03-13T11:06:55.238Z,48.57
2019-03-13T11:09:27.514Z,47.84
2019-03-13T11:12:05.820Z,47.31
2019-03-13T11:14:54.230Z,46.83
2019-03-13T11:17:32.832Z,44.98
2019-03-13T11:20:17.459Z,46.88
2019-03-13T11:22:55.716Z,46.06
2019-03-13T11:25:45.847Z,43.84
2019-03-13T11:28:18.030Z,44.52
2019-03-13T11:31:06.474Z,43.19
2019-03-13T11:33:50.697Z,43.94
2019-03-13T11:36:35.201Z,40.33
2019-03-13T11:39:26.606Z,40.77
2019-03-13T11:42:14.864Z,43.35
2019-03-13T11:45:04.988Z,42.23
2019-03-13T11:47:42.281Z,41.41
2019-03-13T11:50:13.269Z,42.99
2019-03-13T11:52:51.684Z,40.43
2019-03-13T11:55:29.658Z,42.50
2019-03-13T11:58:19.779Z,41.13
2019-03-13T12:01:03.959Z,43.66
2019-03-13T12:03:54.306Z,42.37
2019-03-13T12:06:38.475Z,43.34
2019-03-13T12:09:13.697Z,40.86
2019-03-13T12:12:02.091Z,43.35
2019-03-13T12:14:49.014Z,42.32
2019-03-13T12:17:21.006Z,41.44
2019-03-13T12:20:08.022Z,41.76
2019-03-13T12:22:42.711Z,43.01
2019-03-13T12:25:28.588Z,42.35
2019-03-13T12:28:04.351Z,44.69
2019-03-13T12:30:36.353Z,43.17
2019-03-13T12:33:08.378Z,44.43
2019-03-13T12:35:43.046Z,43.84
2019-03-13T12:38:24.853Z,45.32
2019-03-13T12:41:06.194Z,42.89
2019-03-13T12:43:40.987Z,42.98
2019-03-13T12:46:18.944Z,40.96
2019-03-13T12:48:50.966Z,40.89
2019-03-13T12:51:41.091Z,40.72
2019-03-13T12:54:19.188Z,39.99
2019-03-13T12:57:03.369Z,40.68
2019-03-13T12:59:35.268Z,41.23
2019-03-13T13:02:07.265Z,42.00
2019-03-13T13:04:46.695Z,42.41
2019-03-13T13:07:21.629Z,41.83
2019-03-13T13:10:08.779Z,42.36
2019-03-13T13:12:43.326Z,40.37
2019-03-13T13:15:15.432Z,40.32
2019-03-13T13:17:50.377Z,40.34
2019-03-13T13:20:23.930Z,39.72
2019-03-13T13:22:52.995Z,40.12
2019-03-13T13:25:23.812Z,40.27
2019-03-13T13:27:54.144Z,41.33
2019-03-13T13:30:24.548Z,39.69
2019-03-13T13:32:55.147Z,42.31
2019-03-13T13:35:25.690Z,41.12
2019-03-13T13:37:56.053Z,40.52
2019-03-13T13:40:26.786Z,40.95
2019-03-13T13:42:57.179Z,41.12
2019-03-13T13:45:33.586Z,39.15
2019-03-13T13:48:03.981Z,39.34
2019-03-13T13:50:34.523Z,40.67
2019-03-13T13:53:04.884Z,39.33
2019-03-13T13:58:15.386Z,38.57
2019-03-13T14:00:46.025Z,39.08
2019-03-13T14:03:16.574Z,39.90
2019-03-13T14:05:47.969Z,39.09
2019-03-13T14:08:18.235Z,39.92
2019-03-13T14:10:48.589Z,40.34
2019-03-13T14:13:18.943Z,39.17
2019-03-13T14:15:49.231Z,39.00
2019-03-13T14:18:19.594Z,40.09
2019-03-13T14:20:49.942Z,39.88
2019-03-13T14:23:21.591Z,40.16
2019-03-13T14:25:52.047Z,40.58
2019-03-13T14:28:22.616Z,40.07
2019-03-13T14:30:52.994Z,41.21
2019-03-13T14:33:23.961Z,41.99
2019-03-13T14:35:54.299Z,42.01
2019-03-13T14:38:24.637Z,42.11
2019-03-13T14:40:55.018Z,39.27
2019-03-13T14:43:25.693Z,41.46
2019-03-13T14:45:58.125Z,40.48
2019-03-13T14:48:28.952Z,39.21
2019-03-13T14:51:01.025Z,39.94
2019-03-13T14:53:31.383Z,39.89
2019-03-13T14:56:01.735Z,38.63
2019-03-13T14:58:32.147Z,38.93
2019-03-13T15:01:02.500Z,39.05
2019-03-13T15:03:32.864Z,39.28
2019-03-13T15:06:03.233Z,40.05
2019-03-13T15:08:34.810Z,39.20
2019-03-13T15:11:05.626Z,40.95
2019-03-13T15:13:38.900Z,41.54
2019-03-13T15:16:09.264Z,42.77
2019-03-13T15:18:42.245Z,42.01
2019-03-13T15:21:12.620Z,42.73
2019-03-13T15:23:42.952Z,41.27
2019-03-13T15:26:13.290Z,41.82
2019-03-13T15:28:43.878Z,41.29
2019-03-13T15:31:15.152Z,41.35
2019-03-13T15:33:45.880Z,43.27
2019-03-13T15:36:16.284Z,43.04
2019-03-13T15:38:46.720Z,42.03
2019-03-13T15:41:17.186Z,42.84
2019-03-13T15:43:47.552Z,41.85
2019-03-13T15:46:17.929Z,43.38
2019-03-13T15:48:48.231Z,43.70
2019-03-13T15:51:18.572Z,41.83
2019-03-13T15:53:48.974Z,42.28
2019-03-13T15:56:19.392Z,42.79
2019-03-13T15:58:50.623Z,43.76
2019-03-13T16:01:20.985Z,44.14
2019-03-13T16:03:51.406Z,44.30
2019-03-13T16:06:22.571Z,43.58
2019-03-13T16:08:52.928Z,43.71
2019-03-13T16:11:23.308Z,44.33
2019-03-13T16:13:55.758Z,44.79
2019-03-13T16:16:26.129Z,45.44
2019-03-13T16:18:57.112Z,44.89
2019-03-13T16:21:27.870Z,45.20
2019-03-13T16:23:58.542Z,43.91
2019-03-13T16:26:29.753Z,44.49
2019-03-13T16:29:00.118Z,44.99
2019-03-13T16:31:30.507Z,45.13
2019-03-13T16:34:00.993Z,44.47
2019-03-13T16:36:33.265Z,43.95
2019-03-13T16:39:03.702Z,44.83
2019-03-13T16:41:37.298Z,44.61
2019-03-13T16:44:07.750Z,44.05
2019-03-13T16:46:38.144Z,44.50
2019-03-13T16:49:08.497Z,44.36
2019-03-13T16:51:39.873Z,43.89
2019-03-13T16:54:10.228Z,44.17
2019-03-13T16:56:40.571Z,44.22
2019-03-13T16:59:10.947Z,44.11
2019-03-13T17:01:41.303Z,44.08
2019-03-13T17:04:11.704Z,43.91
2019-03-13T17:06:42.965Z,43.51
2019-03-13T17:09:13.386Z,43.53
2019-03-13T17:11:44.009Z,44.14
2019-03-13T17:14:14.496Z,44.76
2019-03-13T17:16:45.902Z,43.68
2019-03-13T17:19:16.342Z,44.58
2019-03-13T17:21:46.700Z,44.82
2019-03-13T17:24:20.810Z,44.76
2019-03-13T17:26:51.504Z,44.92
2019-03-13T17:29:24.189Z,44.84
2019-03-13T17:31:54.794Z,45.20
2019-03-13T17:34:25.156Z,45.29
2019-03-13T17:36:55.600Z,46.53
2019-03-13T17:39:26.085Z,46.42
2019-03-13T17:41:58.268Z,45.94
2019-03-13T17:44:28.746Z,46.72
2019-03-13T17:46:59.524Z,46.80
2019-03-13T17:49:29.956Z,46.07
2019-03-13T17:52:01.301Z,46.47
2019-03-13T17:54:32.166Z,45.88
2019-03-13T17:57:02.976Z,45.94
2019-03-13T17:59:34.690Z,44.86
2019-03-13T18:02:05.464Z,45.08
2019-03-13T18:04:35.911Z,46.21
2019-03-13T18:07:06.396Z,45.81
2019-03-13T18:09:36.895Z,45.69
2019-03-13T18:12:08.808Z,45.54
2019-03-13T18:14:39.237Z,46.38
2019-03-13T18:17:09.831Z,46.58
2019-03-13T18:19:40.442Z,46.86
2019-03-13T18:22:10.921Z,46.56
2019-03-13T18:24:41.916Z,46.46
2019-03-13T18:27:12.818Z,46.61
2019-03-13T18:29:46.088Z,46.88
2019-03-13T18:32:16.744Z,47.27
2019-03-13T18:34:47.453Z,46.57
2019-03-13T18:37:18.493Z,46.50
2019-03-13T18:39:49.655Z,46.31
2019-03-13T18:42:20.479Z,46.66
2019-03-13T18:44:51.299Z,47.19
2019-03-13T18:47:22.321Z,46.22
2019-03-13T18:49:53.098Z,46.29
2019-03-13T18:52:23.446Z,46.21
2019-03-13T18:54:54.392Z,46.79
2019-03-13T18:57:25.138Z,46.98
2019-03-13T18:59:55.502Z,46.08
2019-03-13T19:02:26.375Z,45.53
2019-03-13T19:04:58.209Z,46.24
2019-03-13T19:07:28.933Z,46.30
2019-03-13T19:09:59.578Z,45.67
2019-03-13T19:12:29.938Z,46.57
2019-03-13T19:15:00.817Z,46.73
2019-03-13T19:17:33.060Z,46.05
2019-03-13T19:20:04.798Z,46.48
2019-03-13T19:22:35.674Z,46.43
2019-03-13T19:25:07.948Z,46.96
2019-03-13T19:27:38.438Z,47.40
2019-03-13T19:30:19.569Z,46.04
2019-03-13T19:32:50.451Z,46.03
2019-03-13T19:35:21.250Z,47.13
2019-03-13T19:37:52.307Z,47.14
2019-03-13T19:40:23.558Z,47.42
2019-03-13T19:42:54.867Z,47.35
2019-03-13T19:45:35.377Z,46.58
2019-03-13T19:48:06.517Z,46.89
2019-03-13T19:50:37.568Z,46.83
2019-03-13T19:53:08.065Z,46.75
2019-03-13T19:55:38.690Z,45.91
2019-03-13T19:58:09.611Z,46.41
2019-03-13T20:00:41.483Z,46.40
2019-03-13T20:03:18.892Z,46.72
2019-03-13T20:05:49.465Z,46.39
2019-03-13T20:08:20.198Z,46.58
2019-03-13T20:10:50.820Z,45.94
2019-03-13T20:13:21.370Z,47.36
2019-03-13T20:15:51.903Z,45.95
2019-03-13T20:18:22.390Z,46.09
2019-03-13T20:20:54.533Z,45.31
2019-03-13T20:23:25.152Z,45.98
2019-03-13T20:25:59.075Z,45.53
2019-03-13T20:28:29.686Z,45.29
2019-03-13T20:31:00.307Z,46.15
2019-03-13T20:33:31.056Z,46.78
2019-03-13T20:36:02.969Z,45.73
2019-03-13T20:38:33.430Z,46.50
2019-03-13T20:41:04.193Z,45.23
2019-03-13T20:43:34.868Z,45.07
2019-03-13T20:46:05.836Z,46.70
2019-03-13T20:48:38.688Z,44.93
2019-03-13T20:51:09.683Z,45.55
2019-03-13T20:53:40.211Z,45.85
2019-03-13T20:56:11.860Z,45.76
2019-03-13T20:58:42.937Z,46.54
2019-03-13T21:01:15.003Z,46.33
2019-03-13T21:03:46.127Z,45.60
2019-03-13T21:06:16.950Z,45.52
2019-03-13T21:08:47.352Z,46.71
2019-03-13T21:11:17.830Z,46.40
2019-03-13T21:13:48.174Z,45.71
2019-03-13T21:16:19.663Z,46.45
2019-03-13T21:18:50.069Z,46.58
2019-03-13T21:21:20.455Z,46.03
2019-03-13T21:23:52.035Z,46.49
2019-03-13T21:26:22.412Z,46.93
2019-03-13T21:28:52.897Z,47.54
2019-03-13T21:31:23.241Z,45.98
2019-03-13T21:33:53.663Z,46.16
2019-03-13T21:36:25.662Z,46.75
2019-03-13T21:38:56.055Z,46.17
2019-03-13T21:41:26.456Z,46.40
2019-03-13T21:43:56.830Z,46.78
2019-03-13T21:46:27.185Z,46.00
2019-03-13T21:48:57.682Z,46.49
2019-03-13T21:51:29.133Z,46.38
2019-03-13T21:53:59.496Z,45.29
2019-03-13T21:56:29.880Z,45.99
2019-03-13T21:59:00.299Z,46.41
2019-03-13T22:01:30.668Z,45.68
2019-03-13T22:04:01.020Z,45.62
2019-03-13T22:06:31.475Z,47.16
2019-03-13T22:09:01.909Z,46.40
2019-03-13T22:11:35.166Z,46.18
2019-03-13T22:14:05.537Z,46.60
2019-03-13T22:16:36.912Z,46.70
2019-03-13T22:19:07.271Z,46.39
2019-03-13T22:21:37.613Z,46.81
2019-03-13T22:24:07.974Z,46.05
2019-03-13T22:26:38.333Z,46.94
2019-03-13T22:29:08.694Z,45.70
2019-03-13T22:31:39.210Z,46.19
2019-03-13T22:34:10.828Z,46.23
2019-03-13T22:36:42.100Z,46.08
2019-03-13T22:39:12.587Z,46.10
2019-03-13T22:41:43.023Z,46.05
2019-03-13T22:44:13.375Z,46.86
2019-03-13T22:46:44.643Z,46.60
2019-03-13T22:49:15.000Z,46.69
2019-03-13T22:51:45.296Z,46.96
2019-03-13T22:54:15.566Z,46.83
2019-03-13T22:56:45.844Z,46.88
2019-03-13T22:59:16.195Z,46.90
2019-03-13T23:01:46.548Z,47.51
2019-03-13T23:04:18.384Z,46.36
2019-03-13T23:06:48.732Z,46.31
2019-03-13T23:09:19.142Z,46.62
2019-03-13T23:11:49.494Z,47.19
2019-03-13T23:14:19.745Z,47.09
2019-03-13T23:16:50.191Z,47.86
2019-03-13T23:19:20.522Z,46.50
2019-03-13T23:21:50.906Z,46.94
2019-03-13T23:24:21.182Z,47.01
2019-03-13T23:26:51.511Z,47.77
2019-03-13T23:29:21.852Z,47.23
2019-03-13T23:31:52.271Z,48.32
2019-03-13T23:34:22.649Z,48.29
2019-03-13T23:36:53.535Z,47.75
2019-03-13T23:39:23.863Z,48.04
2019-03-13T23:41:54.236Z,47.84
2019-03-13T23:44:24.595Z,48.20
2019-03-13T23:46:54.973Z,48.14
2019-03-13T23:49:25.445Z,48.01
2019-03-13T23:51:55.807Z,47.53
2019-03-13T23:54:26.215Z,47.84
2019-03-13T23:56:56.568Z,48.87
2019-03-13T23:59:26.908Z,48.19
